Time;durP1;ratioP1;P1;durP2;ratioP2;P2;SDS_P1;SDS_P2;PMS_P1;PMS_P2;Temp;Humidity;BMP_temperature;BMP_pressure;BME280_temperature;BME280_humidity;BME280_pressure;Samples;Min_cycle;Max_cycle;Signal;HPM_P1;HPM_P2
2021/11/03 00:00:26;;;;;;;2.53;1.27;;;;;;;;;;5043631;28;20029;-67
2021/11/03 00:02:51;;;;;;;3.80;1.30;;;;;;;;;;5043160;28;20346;-67
2021/11/03 00:05:17;;;;;;;2.38;1.38;;;;;;;;;;5044210;28;20025;-67
2021/11/03 00:07:42;;;;;;;3.22;1.70;;;;;;;;;;5042193;28;20814;-69
2021/11/03 00:10:09;;;;;;;3.30;1.50;;;;;;;;;;5047249;28;20028;-69
2021/11/03 00:12:35;;;;;;;2.10;1.50;;;;;;;;;;5044167;28;20052;-69
2021/11/03 00:15:00;;;;;;;3.45;1.83;;;;;;;;;;5045457;28;20078;-69
2021/11/03 00:17:25;;;;;;;2.53;1.40;;;;;;;;;;5043354;28;20139;-69
2021/11/03 00:19:50;;;;;;;3.83;1.42;;;;;;;;;;5043898;28;20033;-68
2021/11/03 00:22:16;;;;;;;2.65;1.42;;;;;;;;;;5046568;28;20021;-69
2021/11/03 00:24:42;;;;;;;2.53;1.30;;;;;;;;;;5045747;28;20029;-68
2021/11/03 00:27:07;;;;;;;3.47;1.60;;;;;;;;;;5046756;28;20424;-69
2021/11/03 00:29:32;;;;;;;2.58;1.40;;;;;;;;;;5043065;28;20056;-69
2021/11/03 00:31:58;;;;;;;1.63;0.95;;;;;;;;;;5042649;28;20036;-69
2021/11/03 00:34:23;;;;;;;2.90;1.48;;;;;;;;;;5044457;28;20017;-69
2021/11/03 00:36:48;;;;;;;4.43;1.40;;;;;;;;;;5045758;28;20098;-68
2021/11/03 00:39:13;;;;;;;2.78;1.40;;;;;;;;;;5041655;28;20641;-68
2021/11/03 00:41:38;;;;;;;2.45;1.30;;;;;;;;;;5049261;28;20091;-68
2021/11/03 00:44:04;;;;;;;3.63;1.48;;;;;;;;;;5041745;28;20095;-68
2021/11/03 00:46:29;;;;;;;1.85;1.10;;;;;;;;;;5043143;28;20036;-69
2021/11/03 00:48:54;;;;;;;2.85;1.38;;;;;;;;;;5048664;28;20028;-68
2021/11/03 00:51:20;;;;;;;2.25;1.30;;;;;;;;;;5047959;28;20458;-68
2021/11/03 00:53:45;;;;;;;1.92;1.08;;;;;;;;;;5047359;28;20048;-68
2021/11/03 00:56:10;;;;;;;2.05;1.17;;;;;;;;;;5046720;28;20036;-68
2021/11/03 00:58:35;;;;;;;1.63;1.00;;;;;;;;;;5043748;28;20053;-67
2021/11/03 01:01:00;;;;;;;1.50;1.00;;;;;;;;;;5043967;28;20441;-69
2021/11/03 01:03:26;;;;;;;1.67;1.00;;;;;;;;;;5045778;28;20108;-69
2021/11/03 01:05:51;;;;;;;2.05;1.08;;;;;;;;;;5042254;28;20366;-67
2021/11/03 01:08:16;;;;;;;3.00;0.98;;;;;;;;;;5042162;28;20030;-69
2021/11/03 01:10:43;;;;;;;1.33;0.85;;;;;;;;;;5041540;28;20125;-69
2021/11/03 01:13:08;;;;;;;1.75;1.10;;;;;;;;;;5040992;28;20047;-68
2021/11/03 01:15:35;;;;;;;2.88;1.40;;;;;;;;;;5044320;28;20017;-68
2021/11/03 01:18:01;;;;;;;2.63;1.13;;;;;;;;;;5046979;28;20032;-68
2021/11/03 01:20:26;;;;;;;2.25;0.80;;;;;;;;;;5046445;28;20040;-68
2021/11/03 01:22:52;;;;;;;2.65;1.00;;;;;;;;;;5040476;28;20025;-69
2021/11/03 01:25:17;;;;;;;3.72;1.20;;;;;;;;;;5045460;28;20044;-68
2021/11/03 01:27:43;;;;;;;2.15;1.10;;;;;;;;;;5038972;28;20071;-69
2021/11/03 01:30:11;;;;;;;2.55;1.27;;;;;;;;;;5046897;28;20134;-69
2021/11/03 01:32:36;;;;;;;2.90;1.50;;;;;;;;;;5044219;28;20115;-68
2021/11/03 01:35:02;;;;;;;2.80;1.30;;;;;;;;;;5039743;28;20222;-68
2021/11/03 01:37:27;;;;;;;2.03;1.25;;;;;;;;;;5042440;28;20104;-68
2021/11/03 01:39:52;;;;;;;4.00;1.35;;;;;;;;;;5046707;28;20070;-69
2021/11/03 01:42:17;;;;;;;1.80;1.23;;;;;;;;;;5038525;28;20036;-68
2021/11/03 01:44:43;;;;;;;2.65;1.30;;;;;;;;;;5040469;28;20473;-69
2021/11/03 01:47:26;;;;;;;3.45;1.20;;;;;;;;;;5041386;28;20075;-67
2021/11/03 01:49:52;;;;;;;3.65;1.20;;;;;;;;;;5042518;28;20380;-68
2021/11/03 01:52:17;;;;;;;2.65;1.10;;;;;;;;;;5047456;28;20024;-69
2021/11/03 01:54:48;;;;;;;1.73;1.10;;;;;;;;;;5044865;28;20021;-68
2021/11/03 01:57:20;;;;;;;2.17;1.00;;;;;;;;;;5045647;28;20021;-68
2021/11/03 01:59:47;;;;;;;2.72;0.90;;;;;;;;;;5044705;28;20041;-67
2021/11/03 02:02:15;;;;;;;1.50;0.82;;;;;;;;;;5043411;28;20408;-69
2021/11/03 02:04:40;;;;;;;1.92;1.10;;;;;;;;;;5043151;28;20041;-68
2021/11/03 02:07:07;;;;;;;1.48;0.95;;;;;;;;;;5045167;28;20045;-67
2021/11/03 02:09:32;;;;;;;3.08;1.13;;;;;;;;;;5042945;28;20599;-68
2021/11/03 02:11:57;;;;;;;1.33;1.00;;;;;;;;;;5041537;28;20087;-69
2021/11/03 02:14:23;;;;;;;0.95;0.80;;;;;;;;;;5046706;28;20013;-68
2021/11/03 02:16:52;;;;;;;0.93;0.80;;;;;;;;;;5040646;28;20121;-68
2021/11/03 02:19:22;;;;;;;1.55;0.70;;;;;;;;;;5046106;28;20028;-68
2021/11/03 02:21:57;;;;;;;1.85;0.90;;;;;;;;;;5042873;28;20104;-68
2021/11/03 02:24:27;;;;;;;1.45;0.80;;;;;;;;;;5042996;28;20037;-70
2021/11/03 02:26:53;;;;;;;0.90;0.68;;;;;;;;;;5034224;28;20079;-69
2021/11/03 02:29:20;;;;;;;1.98;1.02;;;;;;;;;;5041434;28;20021;-68
2021/11/03 02:31:47;;;;;;;1.90;0.95;;;;;;;;;;5037859;28;20033;-68
2021/11/03 02:34:17;;;;;;;2.63;0.95;;;;;;;;;;5042283;28;20067;-68
2021/11/03 02:36:49;;;;;;;1.90;1.10;;;;;;;;;;5040599;28;20025;-68
2021/11/03 02:39:15;;;;;;;3.28;0.93;;;;;;;;;;5046355;28;20361;-69
2021/11/03 02:41:41;;;;;;;1.73;1.08;;;;;;;;;;5044854;28;20536;-69
2021/11/03 02:44:12;;;;;;;2.38;1.52;;;;;;;;;;5045944;28;20112;-69
2021/11/03 02:46:37;;;;;;;2.00;1.15;;;;;;;;;;5050189;28;20477;-68
2021/11/03 02:49:03;;;;;;;1.52;0.80;;;;;;;;;;5047138;28;20017;-68
2021/11/03 02:51:39;;;;;;;2.13;1.10;;;;;;;;;;5043798;28;20037;-68
2021/11/03 02:54:11;;;;;;;4.30;1.00;;;;;;;;;;5041672;28;20384;-68
2021/11/03 02:56:38;;;;;;;1.40;1.00;;;;;;;;;;5050657;28;20021;-69
2021/11/03 02:59:07;;;;;;;1.25;0.90;;;;;;;;;;5048685;28;20134;-68
2021/11/03 03:01:32;;;;;;;1.70;1.00;;;;;;;;;;5043677;28;20078;-69
2021/11/03 03:03:58;;;;;;;2.20;1.00;;;;;;;;;;5042447;28;20025;-69
2021/11/03 03:06:25;;;;;;;1.80;1.13;;;;;;;;;;5040053;28;20125;-68
2021/11/03 03:08:52;;;;;;;2.42;1.05;;;;;;;;;;5044983;28;20032;-69
2021/11/03 03:11:18;;;;;;;2.10;1.30;;;;;;;;;;5049445;28;20119;-68
2021/11/03 03:13:43;;;;;;;1.85;1.00;;;;;;;;;;5041849;28;20165;-69
2021/11/03 03:16:08;;;;;;;1.60;1.00;;;;;;;;;;5044671;28;20111;-68
2021/11/03 03:18:33;;;;;;;1.92;1.10;;;;;;;;;;5044539;28;20055;-68
2021/11/03 03:20:58;;;;;;;3.00;1.50;;;;;;;;;;5043475;28;20029;-69
2021/11/03 03:23:24;;;;;;;1.75;1.20;;;;;;;;;;5047786;28;20041;-69
2021/11/03 03:25:50;;;;;;;2.10;1.15;;;;;;;;;;5046783;28;20094;-68
2021/11/03 03:28:17;;;;;;;2.15;1.30;;;;;;;;;;5050204;28;20017;-69
2021/11/03 03:30:43;;;;;;;1.85;1.17;;;;;;;;;;5044523;28;20780;-69
2021/11/03 03:33:08;;;;;;;2.83;1.20;;;;;;;;;;5045742;28;20061;-67
2021/11/03 03:35:33;;;;;;;2.75;1.20;;;;;;;;;;5045432;28;20357;-70
2021/11/03 03:37:58;;;;;;;1.58;1.13;;;;;;;;;;5050414;28;20025;-68
2021/11/03 03:40:23;;;;;;;1.73;1.17;;;;;;;;;;5049110;28;20057;-68
2021/11/03 03:42:49;;;;;;;2.53;1.30;;;;;;;;;;5041639;28;20022;-68
2021/11/03 03:45:14;;;;;;;2.53;1.52;;;;;;;;;;5043219;28;20059;-68
2021/11/03 03:47:39;;;;;;;1.70;1.10;;;;;;;;;;5047266;28;20201;-68
2021/11/03 03:50:05;;;;;;;2.10;1.38;;;;;;;;;;5048602;28;20028;-69
2021/11/03 03:52:30;;;;;;;2.33;1.30;;;;;;;;;;5049758;28;20039;-69
2021/11/03 03:54:55;;;;;;;3.03;1.60;;;;;;;;;;5048497;28;20115;-69
2021/11/03 03:57:20;;;;;;;2.17;1.38;;;;;;;;;;5042769;28;20028;-68
2021/11/03 03:59:46;;;;;;;2.17;1.30;;;;;;;;;;5044602;28;20480;-70
2021/11/03 04:02:11;;;;;;;1.85;1.35;;;;;;;;;;5038883;28;20029;-69
2021/11/03 04:04:36;;;;;;;2.90;1.27;;;;;;;;;;5037131;28;20051;-68
2021/11/03 04:07:01;;;;;;;1.73;1.25;;;;;;;;;;5042317;28;20032;-69
2021/11/03 04:09:26;;;;;;;2.13;1.42;;;;;;;;;;5042152;28;20496;-68
2021/11/03 04:11:52;;;;;;;2.35;1.45;;;;;;;;;;5040641;28;20078;-69
2021/11/03 04:14:17;;;;;;;2.25;1.65;;;;;;;;;;5045561;28;20037;-69
2021/11/03 04:16:42;;;;;;;2.72;1.50;;;;;;;;;;5046634;28;20033;-69
2021/11/03 04:19:07;;;;;;;3.33;2.10;;;;;;;;;;5049330;28;20025;-68
2021/11/03 04:21:32;;;;;;;3.40;1.95;;;;;;;;;;5049587;28;20029;-69
2021/11/03 04:23:58;;;;;;;2.75;1.80;;;;;;;;;;5044023;28;20087;-69
2021/11/03 04:26:26;;;;;;;3.15;2.20;;;;;;;;;;5042412;28;20106;-68
2021/11/03 04:28:51;;;;;;;4.32;2.58;;;;;;;;;;5040717;28;20048;-68
2021/11/03 04:31:17;;;;;;;3.85;2.55;;;;;;;;;;5044328;28;20025;-68
2021/11/03 04:33:42;;;;;;;4.38;2.55;;;;;;;;;;5038395;28;20496;-68
2021/11/03 04:36:07;;;;;;;3.55;2.45;;;;;;;;;;5044908;28;20504;-69
2021/11/03 04:38:35;;;;;;;4.03;2.47;;;;;;;;;;5039891;28;20021;-69
2021/11/03 04:41:00;;;;;;;6.85;3.20;;;;;;;;;;5040451;28;20527;-69
2021/11/03 04:43:25;;;;;;;4.68;3.15;;;;;;;;;;5040515;28;20071;-69
2021/11/03 04:45:51;;;;;;;5.15;3.47;;;;;;;;;;5038159;28;20025;-69
2021/11/03 04:48:16;;;;;;;5.35;3.00;;;;;;;;;;5040633;28;20594;-69
2021/11/03 04:50:41;;;;;;;4.32;2.95;;;;;;;;;;5034076;28;20371;-68
2021/11/03 04:53:06;;;;;;;4.93;3.45;;;;;;;;;;5041318;28;20067;-69
2021/11/03 04:55:32;;;;;;;5.32;3.58;;;;;;;;;;5041518;28;20079;-68
2021/11/03 04:57:57;;;;;;;6.90;3.72;;;;;;;;;;5045370;28;20040;-68
2021/11/03 05:00:26;;;;;;;6.90;4.03;;;;;;;;;;5039193;28;20389;-68
2021/11/03 05:02:51;;;;;;;6.90;4.13;;;;;;;;;;5041833;28;20460;-68
2021/11/03 05:05:16;;;;;;;6.38;4.20;;;;;;;;;;5040730;28;20118;-68
2021/11/03 05:07:41;;;;;;;6.05;4.38;;;;;;;;;;5047128;28;20346;-69
2021/11/03 05:10:07;;;;;;;8.43;4.70;;;;;;;;;;5043528;28;20018;-68
2021/11/03 05:12:32;;;;;;;6.97;4.53;;;;;;;;;;5047214;28;20028;-69
2021/11/03 05:14:57;;;;;;;7.28;4.38;;;;;;;;;;5043814;28;20024;-68
2021/11/03 05:17:23;;;;;;;5.43;3.90;;;;;;;;;;5048378;28;20147;-69
2021/11/03 05:19:48;;;;;;;6.38;4.43;;;;;;;;;;5039629;28;20120;-69
2021/11/03 05:22:16;;;;;;;8.27;4.38;;;;;;;;;;5048224;28;20071;-68
2021/11/03 05:24:42;;;;;;;6.55;4.13;;;;;;;;;;5044696;28;20032;-68
2021/11/03 05:27:09;;;;;;;8.63;4.57;;;;;;;;;;5041964;28;20037;-68
2021/11/03 05:29:34;;;;;;;7.03;4.30;;;;;;;;;;5045460;28;20037;-69
2021/11/03 05:31:59;;;;;;;7.25;4.65;;;;;;;;;;5043016;28;20040;-68
2021/11/03 05:34:25;;;;;;;7.80;4.80;;;;;;;;;;5045857;28;20041;-68
2021/11/03 05:36:51;;;;;;;7.10;4.70;;;;;;;;;;5042507;28;20029;-70
2021/11/03 05:39:17;;;;;;;7.50;4.93;;;;;;;;;;5048598;28;20606;-68
2021/11/03 05:41:43;;;;;;;7.18;4.85;;;;;;;;;;5045950;28;20029;-68
2021/11/03 05:44:10;;;;;;;8.43;5.05;;;;;;;;;;5046914;28;20071;-68
2021/11/03 05:46:37;;;;;;;8.20;5.30;;;;;;;;;;5046955;28;20473;-68
2021/11/03 05:49:05;;;;;;;7.57;4.28;;;;;;;;;;5047526;28;20025;-69
2021/11/03 05:51:31;;;;;;;8.40;5.10;;;;;;;;;;5044199;28;20033;-70
2021/11/03 05:53:56;;;;;;;8.82;5.68;;;;;;;;;;5048664;28;20393;-69
2021/11/03 05:56:21;;;;;;;8.35;5.30;;;;;;;;;;5041307;28;20461;-68
2021/11/03 05:58:47;;;;;;;8.07;5.53;;;;;;;;;;5047635;28;20060;-68
2021/11/03 06:01:13;;;;;;;8.43;5.47;;;;;;;;;;5042876;28;20029;-68
2021/11/03 06:03:38;;;;;;;9.40;5.95;;;;;;;;;;5048307;28;20095;-71
2021/11/03 06:06:03;;;;;;;8.85;5.63;;;;;;;;;;5047490;28;20090;-69
2021/11/03 06:08:29;;;;;;;9.68;5.97;;;;;;;;;;5042303;28;20036;-68
2021/11/03 06:10:55;;;;;;;8.98;6.53;;;;;;;;;;5046122;28;20121;-68
2021/11/03 06:13:20;;;;;;;10.20;6.97;;;;;;;;;;5048457;28;20051;-69
2021/11/03 06:15:46;;;;;;;9.13;5.82;;;;;;;;;;5050711;28;20021;-68
2021/11/03 06:18:12;;;;;;;9.02;5.80;;;;;;;;;;5049263;28;20419;-68
2021/11/03 06:20:37;;;;;;;9.23;6.18;;;;;;;;;;5050102;28;20025;-71
2021/11/03 06:23:03;;;;;;;11.52;6.90;;;;;;;;;;5049365;28;20502;-68
2021/11/03 06:25:28;;;;;;;13.57;6.82;;;;;;;;;;5050841;28;20025;-67
2021/11/03 06:27:54;;;;;;;10.27;6.38;;;;;;;;;;5041874;28;20037;-70
2021/11/03 06:30:21;;;;;;;9.77;5.88;;;;;;;;;;5048201;28;20024;-68
2021/11/03 06:32:46;;;;;;;9.70;5.97;;;;;;;;;;5050192;28;20037;-70
2021/11/03 06:35:12;;;;;;;8.77;5.35;;;;;;;;;;5051036;28;20075;-69
2021/11/03 06:37:37;;;;;;;9.40;5.47;;;;;;;;;;5044362;28;20078;-69
2021/11/03 06:40:04;;;;;;;8.90;5.00;;;;;;;;;;5050424;28;20107;-70
2021/11/03 06:42:29;;;;;;;9.35;5.43;;;;;;;;;;5042094;28;20053;-69
2021/11/03 06:44:54;;;;;;;8.32;5.22;;;;;;;;;;5046195;28;20068;-68
2021/11/03 06:47:20;;;;;;;9.68;5.95;;;;;;;;;;5050011;28;20159;-69
2021/11/03 06:49:45;;;;;;;9.80;5.95;;;;;;;;;;5055387;28;20013;-69
2021/11/03 06:52:11;;;;;;;8.23;5.43;;;;;;;;;;5050056;28;20032;-69
2021/11/03 06:54:36;;;;;;;11.63;6.03;;;;;;;;;;5050830;28;20055;-69
2021/11/03 06:57:03;;;;;;;13.52;6.25;;;;;;;;;;5049663;28;20105;-69
2021/11/03 06:59:28;;;;;;;9.57;5.85;;;;;;;;;;5050543;28;20065;-68
2021/11/03 07:01:53;;;;;;;12.45;6.57;;;;;;;;;;5048586;28;20051;-68
2021/11/03 07:04:18;;;;;;;11.82;6.38;;;;;;;;;;5049957;28;20025;-68
2021/11/03 07:06:43;;;;;;;9.57;6.47;;;;;;;;;;5048753;28;20033;-69
2021/11/03 07:09:09;;;;;;;12.63;6.25;;;;;;;;;;5050145;28;20097;-68
2021/11/03 07:11:34;;;;;;;12.48;6.25;;;;;;;;;;5052047;28;20043;-68
2021/11/03 07:13:59;;;;;;;21.20;6.43;;;;;;;;;;5053500;28;20538;-70
2021/11/03 07:16:25;;;;;;;11.30;6.30;;;;;;;;;;5050288;28;20028;-71
2021/11/03 07:18:50;;;;;;;11.60;6.68;;;;;;;;;;5050974;28;20020;-69
2021/11/03 07:21:16;;;;;;;12.80;8.15;;;;;;;;;;5046710;28;20028;-68
2021/11/03 07:23:41;;;;;;;11.20;7.03;;;;;;;;;;5049761;28;20112;-69
2021/11/03 07:26:07;;;;;;;10.98;6.82;;;;;;;;;;5050697;28;20028;-69
2021/11/03 07:28:32;;;;;;;11.07;7.05;;;;;;;;;;5050834;28;20041;-68
2021/11/03 07:30:57;;;;;;;11.27;7.10;;;;;;;;;;5048413;28;20018;-68
2021/11/03 07:33:23;;;;;;;10.30;6.32;;;;;;;;;;5050280;28;20159;-69
2021/11/03 07:35:48;;;;;;;11.32;5.88;;;;;;;;;;5050141;28;20342;-69
2021/11/03 07:38:14;;;;;;;9.35;5.65;;;;;;;;;;5050251;28;20025;-68
2021/11/03 07:40:42;;;;;;;12.05;6.85;;;;;;;;;;5043977;28;20469;-69
2021/11/03 07:43:08;;;;;;;9.95;5.72;;;;;;;;;;5051073;28;20037;-68
2021/11/03 07:45:34;;;;;;;9.95;6.60;;;;;;;;;;5047990;28;20118;-69
2021/11/03 07:48:00;;;;;;;9.32;5.55;;;;;;;;;;5050548;28;20028;-68
2021/11/03 07:50:27;;;;;;;8.52;4.88;;;;;;;;;;5047082;28;20384;-69
2021/11/03 07:52:52;;;;;;;8.00;5.10;;;;;;;;;;5049779;28;20028;-68
2021/11/03 07:55:17;;;;;;;7.30;4.95;;;;;;;;;;5050046;28;20021;-68
2021/11/03 07:57:43;;;;;;;7.32;4.20;;;;;;;;;;5049916;28;20041;-69
2021/11/03 08:00:10;;;;;;;7.30;4.25;;;;;;;;;;5046701;28;20468;-69
2021/11/03 08:02:35;;;;;;;9.05;4.10;;;;;;;;;;5049400;28;20032;-69
2021/11/03 08:05:00;;;;;;;5.68;4.00;;;;;;;;;;5050394;28;20074;-68
2021/11/03 08:07:26;;;;;;;8.02;3.95;;;;;;;;;;5049878;28;20040;-68
2021/11/03 08:09:51;;;;;;;6.00;3.58;;;;;;;;;;5050648;28;20056;-69
2021/11/03 08:12:19;;;;;;;6.15;3.85;;;;;;;;;;5050056;28;20021;-69
2021/11/03 08:14:44;;;;;;;6.30;3.80;;;;;;;;;;5050232;28;20021;-68
2021/11/03 08:17:12;;;;;;;6.60;3.70;;;;;;;;;;5046826;28;20021;-68
2021/11/03 08:19:42;;;;;;;7.18;3.80;;;;;;;;;;5048154;28;20037;-69
2021/11/03 08:22:07;;;;;;;5.97;3.65;;;;;;;;;;5049738;28;20445;-69
2021/11/03 08:24:32;;;;;;;5.38;3.50;;;;;;;;;;5043339;28;20065;-69
2021/11/03 08:26:58;;;;;;;4.75;3.17;;;;;;;;;;5049766;28;20027;-69
2021/11/03 08:29:23;;;;;;;5.05;3.30;;;;;;;;;;5049333;28;20017;-70
2021/11/03 08:31:51;;;;;;;5.53;3.30;;;;;;;;;;5049998;28;20567;-68
2021/11/03 08:34:16;;;;;;;6.60;3.03;;;;;;;;;;5049366;28;20025;-69
2021/11/03 08:36:41;;;;;;;4.38;3.28;;;;;;;;;;5048771;28;20040;-69
2021/11/03 08:39:08;;;;;;;4.10;3.00;;;;;;;;;;5048606;28;20073;-68
2021/11/03 08:41:33;;;;;;;5.80;3.05;;;;;;;;;;5043970;28;20057;-67
2021/11/03 08:43:58;;;;;;;5.40;3.25;;;;;;;;;;5047921;28;20068;-64
2021/11/03 08:46:24;;;;;;;5.43;3.20;;;;;;;;;;5049141;28;20399;-65
2021/11/03 08:48:59;;;;;;;5.35;3.08;;;;;;;;;;5052825;28;20422;-63
2021/11/03 08:51:26;;;;;;;5.47;2.97;;;;;;;;;;5048917;28;20086;-65
2021/11/03 08:53:51;;;;;;;5.05;3.30;;;;;;;;;;5049666;28;20029;-65
2021/11/03 08:56:16;;;;;;;4.35;3.10;;;;;;;;;;5049410;28;20364;-65
2021/11/03 08:58:41;;;;;;;5.72;3.40;;;;;;;;;;5048969;28;20049;-67
2021/11/03 09:01:07;;;;;;;4.05;2.83;;;;;;;;;;5047894;28;20069;-61
2021/11/03 09:03:34;;;;;;;5.43;3.35;;;;;;;;;;5048858;28;20032;-61
2021/11/03 09:06:01;;;;;;;4.72;2.95;;;;;;;;;;5048955;28;20029;-62
2021/11/03 09:08:26;;;;;;;4.13;2.60;;;;;;;;;;5048804;28;20025;-61
2021/11/03 09:10:53;;;;;;;6.47;3.28;;;;;;;;;;5046420;28;20079;-61
2021/11/03 09:13:20;;;;;;;6.68;3.28;;;;;;;;;;5041901;28;20539;-62
2021/11/03 09:15:46;;;;;;;5.93;2.88;;;;;;;;;;5048989;28;20021;-62
2021/11/03 09:18:11;;;;;;;5.25;3.17;;;;;;;;;;5047441;28;20521;-62
2021/11/03 09:20:37;;;;;;;6.38;2.88;;;;;;;;;;5047076;28;20381;-61
2021/11/03 09:23:02;;;;;;;5.28;3.40;;;;;;;;;;5049039;28;20056;-61
2021/11/03 09:25:28;;;;;;;6.28;3.30;;;;;;;;;;5048895;28;20021;-61
2021/11/03 09:27:53;;;;;;;6.60;3.03;;;;;;;;;;5048691;28;20048;-62
2021/11/03 09:30:21;;;;;;;5.88;3.30;;;;;;;;;;5048602;28;20024;-62
2021/11/03 09:32:47;;;;;;;6.38;3.55;;;;;;;;;;5049030;28;20055;-62
2021/11/03 09:35:13;;;;;;;4.85;2.97;;;;;;;;;;5048662;28;20025;-62
2021/11/03 09:37:39;;;;;;;8.50;3.30;;;;;;;;;;5048667;28;20428;-62
2021/11/03 09:40:05;;;;;;;6.47;3.55;;;;;;;;;;5048852;28;20021;-61
2021/11/03 09:42:31;;;;;;;4.10;2.75;;;;;;;;;;5049000;28;20040;-61
2021/11/03 09:44:56;;;;;;;4.28;2.47;;;;;;;;;;5048998;28;20084;-61
2021/11/03 09:47:29;;;;;;;5.35;2.83;;;;;;;;;;5049249;28;20065;-62
2021/11/03 09:49:57;;;;;;;5.93;3.00;;;;;;;;;;5059037;28;20017;-62
2021/11/03 09:52:25;;;;;;;5.38;2.97;;;;;;;;;;5053480;28;20075;-62
2021/11/03 09:54:55;;;;;;;4.78;2.70;;;;;;;;;;5052976;28;20102;-63
2021/11/03 09:57:30;;;;;;;4.97;2.83;;;;;;;;;;5052378;28;20025;-62
2021/11/03 10:00:12;;;;;;;5.38;3.00;;;;;;;;;;5052707;28;20036;-62
2021/11/03 10:02:56;;;;;;;6.07;2.20;;;;;;;;;;5046764;28;20021;-62
2021/11/03 10:05:21;;;;;;;5.85;3.95;;;;;;;;;;5052682;28;20021;-61
2021/11/03 10:08:11;;;;;;;9.93;4.10;;;;;;;;;;5052382;28;20082;-62
2021/11/03 10:10:37;;;;;;;;;;;;;;;;;;5052728;28;20263;-61
2021/11/03 10:13:12;;;;;;;9.02;3.60;;;;;;;;;;5052312;28;20384;-62
2021/11/03 10:15:37;;;;;;;8.02;3.92;;;;;;;;;;5052108;28;20032;-62
2021/11/03 10:18:11;;;;;;;10.55;4.05;;;;;;;;;;5053348;28;20028;-61
2021/11/03 10:20:41;;;;;;;11.25;4.05;;;;;;;;;;5053793;28;20039;-63
2021/11/03 10:23:08;;;;;;;10.68;4.60;;;;;;;;;;5052480;28;20025;-62
2021/11/03 10:25:33;;;;;;;11.73;4.70;;;;;;;;;;5051542;28;20063;-61
2021/11/03 10:27:59;;;;;;;5.85;2.90;;;;;;;;;;5052424;28;20064;-62
2021/11/03 10:30:25;;;;;;;9.82;4.00;;;;;;;;;;5052093;28;20017;-61
2021/11/03 10:32:50;;;;;;;8.80;3.90;;;;;;;;;;5052051;28;20052;-62
2021/11/03 10:35:35;;;;;;;5.15;2.45;;;;;;;;;;5052268;28;20388;-61
2021/11/03 10:38:10;;;;;;;5.03;2.70;;;;;;;;;;5051981;28;20044;-61
2021/11/03 10:40:53;;;;;;;3.83;2.20;;;;;;;;;;5051870;28;20437;-62
2021/11/03 10:43:30;;;;;;;4.53;2.08;;;;;;;;;;5052306;28;20039;-62
2021/11/03 10:45:57;;;;;;;4.63;2.33;;;;;;;;;;5051499;28;20534;-62
2021/11/03 10:48:24;;;;;;;5.68;2.22;;;;;;;;;;5053994;28;20399;-62
2021/11/03 10:50:55;;;;;;;3.70;1.80;;;;;;;;;;5051577;28;20047;-63
2021/11/03 10:53:36;;;;;;;4.03;1.90;;;;;;;;;;5051880;28;20393;-62
2021/11/03 10:56:19;;;;;;;5.07;2.00;;;;;;;;;;5051600;28;20021;-62
2021/11/03 10:58:50;;;;;;;3.75;2.13;;;;;;;;;;5050915;28;20068;-62
2021/11/03 11:01:24;;;;;;;2.75;1.90;;;;;;;;;;5051645;28;20032;-61
2021/11/03 11:04:02;;;;;;;5.40;2.10;;;;;;;;;;5051410;28;20017;-61
2021/11/03 11:06:27;;;;;;;7.57;2.20;;;;;;;;;;5051135;28;20560;-61
2021/11/03 11:08:58;;;;;;;3.70;1.80;;;;;;;;;;5051479;28;20142;-62
2021/11/03 11:11:24;;;;;;;5.38;2.45;;;;;;;;;;5051315;28;20761;-62
2021/11/03 11:14:00;;;;;;;4.22;2.05;;;;;;;;;;5051352;28;20082;-62
2021/11/03 11:16:28;;;;;;;4.25;2.60;;;;;;;;;;5050991;28;20024;-62
2021/11/03 11:18:55;;;;;;;3.25;2.10;;;;;;;;;;5051413;28;20048;-65
2021/11/03 11:21:26;;;;;;;3.20;2.00;;;;;;;;;;5051023;28;20547;-62
2021/11/03 11:23:58;;;;;;;5.05;2.28;;;;;;;;;;5051264;28;20025;-61
2021/11/03 11:26:24;;;;;;;3.50;2.05;;;;;;;;;;5051061;28;20039;-62
2021/11/03 11:29:01;;;;;;;4.68;2.28;;;;;;;;;;5051660;28;20033;-62
2021/11/03 11:31:29;;;;;;;5.40;2.50;;;;;;;;;;5050720;28;20104;-62
2021/11/03 11:34:12;;;;;;;5.85;3.08;;;;;;;;;;5051045;28;20484;-62
2021/11/03 11:36:54;;;;;;;5.75;2.58;;;;;;;;;;5050522;28;20053;-63
2021/11/03 11:39:34;;;;;;;5.13;3.13;;;;;;;;;;5050698;28;20107;-61
2021/11/03 11:42:09;;;;;;;4.78;2.67;;;;;;;;;;5045375;28;20028;-62
2021/11/03 11:44:35;;;;;;;6.25;2.67;;;;;;;;;;5050446;28;20017;-61
2021/11/03 11:47:03;;;;;;;6.05;2.92;;;;;;;;;;5050455;28;20107;-62
2021/11/03 11:49:33;;;;;;;3.97;2.60;;;;;;;;;;5050460;28;20021;-62
2021/11/03 11:52:01;;;;;;;5.53;2.80;;;;;;;;;;5050735;28;20024;-61
2021/11/03 11:54:41;;;;;;;4.78;2.58;;;;;;;;;;5050195;28;20028;-62
2021/11/03 11:57:12;;;;;;;6.93;2.88;;;;;;;;;;5050739;28;20033;-61
2021/11/03 12:00:07;;;;;;;5.45;2.50;;;;;;;;;;5050072;28;20453;-61
2021/11/03 12:02:33;;;;;;;3.40;2.28;;;;;;;;;;5028362;28;20558;-62
2021/11/03 12:05:13;;;;;;;4.57;2.70;;;;;;;;;;5047624;28;20389;-62
2021/11/03 12:07:39;;;;;;;4.10;2.40;;;;;;;;;;5047564;28;20631;-62
2021/11/03 12:10:10;;;;;;;5.05;2.53;;;;;;;;;;5046592;28;20021;-62
2021/11/03 12:12:55;;;;;;;5.22;3.05;;;;;;;;;;5047452;28;20068;-61
2021/11/03 12:15:46;;;;;;;4.35;2.30;;;;;;;;;;5047149;28;20037;-61
2021/11/03 12:18:18;;;;;;;5.25;2.30;;;;;;;;;;4971210;28;20031;-61
2021/11/03 12:20:44;;;;;;;5.68;2.55;;;;;;;;;;4968664;28;20474;-61
2021/11/03 12:23:28;;;;;;;4.35;2.33;;;;;;;;;;4968266;28;20030;-61
2021/11/03 12:25:53;;;;;;;5.13;2.47;;;;;;;;;;4968593;28;20039;-61
2021/11/03 12:28:19;;;;;;;5.50;2.05;;;;;;;;;;4963424;28;20043;-62
2021/11/03 12:31:05;;;;;;;2.97;2.00;;;;;;;;;;4968534;28;20106;-62
2021/11/03 12:33:50;;;;;;;6.10;2.42;;;;;;;;;;4968067;28;20047;-62
2021/11/03 12:36:15;;;;;;;4.38;2.13;;;;;;;;;;4968197;28;20073;-61
2021/11/03 12:38:45;;;;;;;4.32;2.08;;;;;;;;;;4975751;28;20054;-62
2021/11/03 12:41:22;;;;;;;5.45;2.03;;;;;;;;;;4988034;28;20029;-61
2021/11/03 12:43:49;;;;;;;3.90;2.15;;;;;;;;;;4987438;28;20018;-62
2021/11/03 12:46:16;;;;;;;4.40;2.20;;;;;;;;;;4987739;28;20389;-61
2021/11/03 12:48:43;;;;;;;4.85;1.67;;;;;;;;;;4988763;28;20149;-62
2021/11/03 12:51:12;;;;;;;3.17;1.98;;;;;;;;;;4987820;28;20022;-62
2021/11/03 12:53:45;;;;;;;3.70;1.92;;;;;;;;;;4987443;28;20134;-61
2021/11/03 12:56:13;;;;;;;3.28;1.70;;;;;;;;;;5048033;28;20453;-62
2021/11/03 12:58:40;;;;;;;6.50;1.75;;;;;;;;;;5048906;28;20051;-62
2021/11/03 13:01:25;;;;;;;3.83;1.80;;;;;;;;;;5049021;28;20056;-62
2021/11/03 13:03:57;;;;;;;4.68;2.63;;;;;;;;;;5048370;28;20041;-62
2021/11/03 13:06:24;;;;;;;6.93;2.10;;;;;;;;;;5048173;28;20566;-61
2021/11/03 13:08:49;;;;;;;3.13;2.00;;;;;;;;;;5049326;28;20029;-63
2021/11/03 13:11:29;;;;;;;5.03;2.20;;;;;;;;;;5048891;28;20353;-63
2021/11/03 13:14:00;;;;;;;6.22;2.40;;;;;;;;;;5049158;28;20028;-62
2021/11/03 13:16:30;;;;;;;4.38;2.10;;;;;;;;;;5049181;28;20023;-62
2021/11/03 13:18:56;;;;;;;6.47;2.20;;;;;;;;;;5055263;28;20024;-62
2021/11/03 13:21:23;;;;;;;4.43;2.15;;;;;;;;;;5048955;28;20021;-62
2021/11/03 13:23:50;;;;;;;6.50;2.30;;;;;;;;;;5049106;28;20032;-63
2021/11/03 13:26:21;;;;;;;4.03;2.00;;;;;;;;;;5048535;28;20127;-63
2021/11/03 13:28:48;;;;;;;4.78;1.95;;;;;;;;;;5048395;28;20469;-62
2021/11/03 13:31:16;;;;;;;4.32;2.40;;;;;;;;;;5048694;28;20025;-62
2021/11/03 13:33:42;;;;;;;3.78;2.00;;;;;;;;;;5048679;28;20052;-63
2021/11/03 13:36:21;;;;;;;5.60;2.42;;;;;;;;;;5049090;28;20071;-63
2021/11/03 13:38:54;;;;;;;8.05;2.72;;;;;;;;;;5048509;28;20025;-63
2021/11/03 13:41:26;;;;;;;5.53;2.33;;;;;;;;;;5048866;28;20037;-61
2021/11/03 13:44:10;;;;;;;3.83;2.03;;;;;;;;;;5048259;28;20025;-62
2021/11/03 13:46:36;;;;;;;5.00;3.15;;;;;;;;;;5048531;28;20055;-62
2021/11/03 13:49:02;;;;;;;4.47;2.28;;;;;;;;;;5053018;28;20460;-62
2021/11/03 13:51:32;;;;;;;4.43;2.40;;;;;;;;;;5048442;28;20496;-62
2021/11/03 13:54:01;;;;;;;3.53;2.20;;;;;;;;;;5048630;28;20021;-61
2021/11/03 13:56:28;;;;;;;6.13;2.40;;;;;;;;;;5048338;28;20556;-60
2021/11/03 13:59:01;;;;;;;7.63;2.33;;;;;;;;;;5048188;28;20087;-63
2021/11/03 14:01:27;;;;;;;5.90;2.38;;;;;;;;;;5048703;28;20053;-61
2021/11/03 14:03:55;;;;;;;4.03;2.10;;;;;;;;;;5048843;28;20063;-62
2021/11/03 14:06:22;;;;;;;5.07;2.20;;;;;;;;;;5048633;28;20025;-61
2021/11/03 14:08:48;;;;;;;3.45;2.03;;;;;;;;;;5048876;28;20040;-62
2021/11/03 14:11:14;;;;;;;4.30;1.88;;;;;;;;;;5048809;28;20478;-61
2021/11/03 14:13:39;;;;;;;3.88;2.28;;;;;;;;;;5048577;28;20037;-62
2021/11/03 14:16:07;;;;;;;5.43;2.30;;;;;;;;;;5048493;28;20441;-63
2021/11/03 14:18:33;;;;;;;10.43;2.17;;;;;;;;;;5051227;28;20124;-62
2021/11/03 14:20:58;;;;;;;9.40;3.08;;;;;;;;;;5048445;28;20107;-63
2021/11/03 14:23:23;;;;;;;5.85;3.50;;;;;;;;;;5048058;28;20473;-62
2021/11/03 14:25:49;;;;;;;6.82;3.85;;;;;;;;;;5048617;28;20543;-62
2021/11/03 14:28:15;;;;;;;7.80;4.20;;;;;;;;;;5048192;28;20486;-62
2021/11/03 14:30:52;;;;;;;6.85;4.53;;;;;;;;;;5048447;28;20021;-62
2021/11/03 14:33:20;;;;;;;8.65;4.55;;;;;;;;;;5048491;28;20459;-62
2021/11/03 14:35:45;;;;;;;7.25;4.38;;;;;;;;;;5051807;28;20528;-62
2021/11/03 14:38:22;;;;;;;8.48;4.63;;;;;;;;;;5051949;28;20124;-61
2021/11/03 14:40:48;;;;;;;8.20;4.60;;;;;;;;;;5051497;28;20029;-61
2021/11/03 14:43:13;;;;;;;7.30;3.95;;;;;;;;;;5051937;28;20051;-61
2021/11/03 14:45:38;;;;;;;7.25;4.43;;;;;;;;;;5051529;28;20416;-61